createdAt,value
2023-02-11T00:00:22.233Z,21.53
2023-02-11T00:02:48.879Z,19.97
2023-02-11T00:05:15.936Z,18.53
2023-02-11T00:07:42.645Z,19.00
2023-02-11T00:10:09.541Z,19.27
2023-02-11T00:12:37.562Z,20.80
2023-02-11T00:15:06.155Z,18.53
2023-02-11T00:17:32.867Z,18.43
2023-02-11T00:19:59.461Z,18.37
2023-02-11T00:22:26.323Z,18.13
2023-02-11T00:24:53.011Z,17.60
2023-02-11T00:27:19.701Z,18.43
2023-02-11T00:29:46.413Z,18.50
2023-02-11T00:32:13.086Z,18.20
2023-02-11T00:34:39.778Z,19.07
2023-02-11T00:37:06.802Z,19.10
2023-02-11T00:39:33.638Z,18.60
2023-02-11T00:42:00.466Z,20.90
2023-02-11T00:44:27.100Z,17.50
2023-02-11T00:46:53.722Z,17.00
2023-02-11T00:49:20.607Z,16.90
2023-02-11T00:51:48.535Z,19.53
2023-02-11T00:54:15.199Z,16.33
2023-02-11T00:56:42.074Z,15.97
2023-02-11T00:59:09.124Z,15.33
2023-02-11T01:01:35.948Z,15.90
2023-02-11T01:04:03.044Z,14.70
2023-02-11T01:06:29.741Z,15.33
2023-02-11T01:08:56.603Z,15.20
2023-02-11T01:11:23.313Z,14.40
2023-02-11T01:13:50.864Z,13.80
2023-02-11T01:16:19.385Z,14.00
2023-02-11T01:18:46.472Z,16.40
2023-02-11T01:21:13.241Z,19.17
2023-02-11T01:23:39.992Z,22.17
2023-02-11T01:26:06.773Z,21.97
2023-02-11T01:28:33.676Z,23.70
2023-02-11T01:31:02.241Z,23.27
2023-02-11T01:33:29.904Z,23.10
2023-02-11T01:36:00.922Z,22.77
2023-02-11T01:38:28.193Z,24.03
2023-02-11T01:41:03.218Z,23.03
2023-02-11T01:43:36.708Z,23.50
2023-02-11T01:46:35.035Z,22.80
2023-02-11T01:49:05.652Z,22.30
2023-02-11T01:51:59.824Z,22.50
2023-02-11T01:54:49.320Z,22.90
2023-02-11T01:57:22.807Z,23.27
2023-02-11T02:00:08.735Z,22.77
2023-02-11T02:02:50.411Z,22.07
2023-02-11T02:05:31.225Z,23.23
2023-02-11T02:08:29.721Z,25.37
2023-02-11T02:10:58.440Z,26.43
2023-02-11T02:13:25.954Z,25.63
2023-02-11T02:15:59.513Z,22.63
2023-02-11T02:18:54.256Z,18.53
2023-02-11T02:21:43.331Z,14.70
2023-02-11T02:24:31.503Z,13.93
2023-02-11T02:27:10.296Z,13.63
2023-02-11T02:29:49.082Z,15.47
2023-02-11T02:32:43.365Z,14.57
2023-02-11T02:35:15.037Z,13.77
2023-02-11T02:38:20.579Z,13.70
2023-02-11T02:40:53.492Z,13.10
2023-02-11T02:43:22.322Z,13.17
2023-02-11T02:45:49.266Z,13.60
2023-02-11T02:48:32.746Z,12.93
2023-02-11T02:51:25.288Z,12.53
2023-02-11T02:54:33.951Z,13.77
2023-02-11T02:57:25.503Z,13.00
2023-02-11T03:00:29.857Z,13.93
2023-02-11T03:03:13.184Z,14.13
2023-02-11T03:05:52.937Z,13.70
2023-02-11T03:08:42.938Z,13.53
2023-02-11T03:11:11.748Z,13.53
2023-02-11T03:13:40.507Z,14.03
2023-02-11T03:16:13.693Z,13.13
2023-02-11T03:18:44.748Z,12.47
2023-02-11T03:21:13.950Z,13.33
2023-02-11T03:23:48.128Z,13.03
2023-02-11T03:26:24.716Z,12.77
2023-02-11T03:29:12.503Z,11.80
2023-02-11T03:31:49.941Z,11.67
2023-02-11T03:34:29.852Z,12.00
2023-02-11T03:36:59.848Z,11.60
2023-02-11T03:39:33.025Z,11.30
2023-02-11T03:42:01.960Z,12.37
2023-02-11T03:44:35.560Z,12.70
2023-02-11T03:47:05.088Z,11.83
2023-02-11T03:49:33.355Z,12.70
2023-02-11T03:52:03.106Z,15.90
2023-02-11T03:54:30.805Z,17.17
2023-02-11T03:57:00.736Z,17.90
2023-02-11T03:59:28.180Z,19.23
2023-02-11T04:01:55.038Z,18.93
2023-02-11T04:04:21.959Z,19.37
2023-02-11T04:06:48.691Z,19.70
2023-02-11T04:09:16.395Z,18.83
2023-02-11T04:11:43.038Z,19.73
2023-02-11T04:14:09.623Z,17.47
2023-02-11T04:16:36.311Z,16.60
2023-02-11T04:19:03.209Z,18.07
2023-02-11T04:21:29.818Z,17.97
2023-02-11T04:23:56.446Z,17.20
2023-02-11T04:26:23.162Z,18.10
2023-02-11T04:28:49.787Z,17.20
2023-02-11T04:31:16.524Z,14.00
2023-02-11T04:33:43.206Z,13.00
2023-02-11T04:36:09.887Z,12.57
2023-02-11T04:38:36.513Z,11.93
2023-02-11T04:41:03.245Z,11.40
2023-02-11T04:43:29.975Z,11.90
2023-02-11T04:45:58.371Z,11.53
2023-02-11T04:48:25.570Z,11.47
2023-02-11T04:50:52.348Z,12.70
2023-02-11T04:53:19.026Z,12.63
2023-02-11T04:55:49.135Z,12.33
2023-02-11T04:58:16.717Z,15.70
2023-02-11T05:00:43.403Z,17.80
2023-02-11T05:03:10.134Z,17.83
2023-02-11T05:05:41.465Z,18.27
2023-02-11T05:08:11.033Z,19.27
2023-02-11T05:10:37.835Z,17.60
2023-02-11T05:13:04.890Z,18.33
2023-02-11T05:15:31.671Z,18.27
2023-02-11T05:17:58.551Z,19.33
2023-02-11T05:20:25.485Z,18.80
2023-02-11T05:22:52.537Z,19.20
2023-02-11T05:25:20.342Z,18.97
2023-02-11T05:27:46.948Z,18.20
2023-02-11T05:30:13.825Z,18.33
2023-02-11T05:32:40.572Z,14.67
2023-02-11T05:35:08.202Z,14.87
2023-02-11T05:37:35.226Z,15.63
2023-02-11T05:40:01.909Z,17.53
2023-02-11T05:42:28.557Z,18.10
2023-02-11T05:44:55.207Z,18.20
2023-02-11T05:47:21.802Z,17.23
2023-02-11T05:49:48.402Z,17.93
2023-02-11T05:52:15.092Z,17.40
2023-02-11T05:54:41.839Z,14.33
2023-02-11T05:57:08.581Z,15.00
2023-02-11T05:59:35.269Z,13.97
2023-02-11T06:02:02.324Z,13.67
2023-02-11T06:04:29.281Z,12.70
2023-02-11T06:06:56.829Z,12.23
2023-02-11T06:09:23.486Z,12.07
2023-02-11T06:11:50.115Z,12.30
2023-02-11T06:14:16.700Z,11.57
2023-02-11T06:16:43.393Z,11.93
2023-02-11T06:19:10.797Z,11.43
2023-02-11T06:21:43.983Z,11.73
2023-02-11T06:24:11.899Z,12.17
2023-02-11T06:26:38.580Z,12.30
2023-02-11T06:29:05.320Z,11.40
2023-02-11T06:31:32.096Z,12.43
2023-02-11T06:33:59.256Z,12.53
2023-02-11T06:36:25.931Z,11.33
2023-02-11T06:38:52.677Z,11.70
2023-02-11T06:41:22.643Z,11.47
2023-02-11T06:43:49.748Z,11.23
2023-02-11T06:46:16.431Z,11.00
2023-02-11T06:48:44.845Z,10.70
2023-02-11T06:51:13.318Z,13.00
2023-02-11T06:53:43.232Z,14.13
2023-02-11T06:56:12.561Z,14.90
2023-02-11T06:58:39.720Z,15.77
2023-02-11T07:01:08.984Z,16.27
2023-02-11T07:03:37.287Z,15.67
2023-02-11T07:06:05.948Z,18.00
2023-02-11T07:08:36.828Z,17.60
2023-02-11T07:11:16.305Z,16.83
2023-02-11T07:13:43.498Z,16.80
2023-02-11T07:16:14.086Z,17.20
2023-02-11T07:18:40.978Z,16.80
2023-02-11T07:21:09.362Z,15.93
2023-02-11T07:23:36.908Z,16.90
2023-02-11T07:26:08.918Z,14.80
2023-02-11T07:28:37.163Z,15.90
2023-02-11T07:31:12.122Z,12.37
2023-02-11T07:33:39.306Z,12.63
2023-02-11T07:36:08.504Z,16.03
2023-02-11T07:38:36.167Z,16.33
2023-02-11T07:41:09.265Z,18.33
2023-02-11T07:43:37.420Z,17.13
2023-02-11T07:46:05.859Z,15.90
2023-02-11T07:48:32.951Z,18.87
2023-02-11T07:51:11.775Z,17.53
2023-02-11T07:53:38.777Z,16.13
2023-02-11T07:56:06.961Z,16.73
2023-02-11T07:58:34.273Z,16.70
2023-02-11T08:01:06.066Z,15.47
2023-02-11T08:03:34.448Z,15.90
2023-02-11T08:06:09.624Z,24.27
2023-02-11T08:08:36.923Z,21.40
2023-02-11T08:11:08.203Z,15.57
2023-02-11T08:13:35.800Z,32.13
2023-02-11T08:16:05.117Z,16.00
2023-02-11T08:18:33.222Z,12.63
2023-02-11T08:21:07.513Z,13.23
2023-02-11T08:23:37.408Z,78.53
2023-02-11T08:26:05.469Z,13.70
2023-02-11T08:28:35.954Z,14.30
2023-02-11T08:31:11.429Z,12.50
2023-02-11T08:33:40.373Z,13.80
2023-02-11T08:36:12.051Z,14.10
2023-02-11T08:38:38.725Z,29.10
2023-02-11T08:41:05.513Z,13.43
2023-02-11T08:43:33.271Z,12.40
2023-02-11T08:46:02.153Z,14.37
2023-02-11T08:48:29.925Z,13.37
2023-02-11T08:50:57.282Z,13.27
2023-02-11T08:53:24.348Z,25.03
2023-02-11T08:55:53.948Z,12.43
2023-02-11T08:58:21.613Z,12.30
2023-02-11T09:00:49.917Z,12.50
2023-02-11T09:03:16.956Z,12.20
2023-02-11T09:05:49.809Z,11.93
2023-02-11T09:08:17.115Z,12.80
2023-02-11T09:10:43.979Z,12.00
2023-02-11T09:13:11.100Z,12.60
2023-02-11T09:15:37.726Z,13.50
2023-02-11T09:18:05.180Z,12.57
2023-02-11T09:20:32.129Z,12.83
2023-02-11T09:22:59.512Z,12.80
2023-02-11T09:25:26.649Z,12.63
2023-02-11T09:27:53.789Z,13.10
2023-02-11T09:30:21.093Z,12.43
2023-02-11T09:32:47.933Z,11.60
2023-02-11T09:35:14.618Z,12.40
2023-02-11T09:37:41.314Z,12.07
2023-02-11T09:40:08.674Z,12.63
2023-02-11T09:42:44.281Z,12.40
2023-02-11T09:45:24.313Z,12.07
2023-02-11T09:47:55.911Z,12.93
2023-02-11T09:50:29.400Z,12.73
2023-02-11T09:53:11.628Z,11.83
2023-02-11T09:55:46.038Z,12.73
2023-02-11T09:58:14.427Z,13.30
2023-02-11T10:00:50.259Z,12.93
2023-02-11T10:03:38.160Z,14.23
2023-02-11T10:06:38.188Z,13.13
2023-02-11T10:09:11.506Z,12.53
2023-02-11T10:12:09.158Z,13.03
2023-02-11T10:14:53.781Z,14.07
2023-02-11T10:17:37.751Z,13.10
2023-02-11T10:20:04.428Z,13.93
2023-02-11T10:22:37.588Z,13.70
2023-02-11T10:25:20.035Z,14.50
2023-02-11T10:27:47.671Z,14.03
2023-02-11T10:30:43.801Z,14.03
2023-02-11T10:33:43.101Z,13.77
2023-02-11T10:36:14.418Z,13.60
2023-02-11T10:38:41.168Z,14.83
2023-02-11T10:41:16.020Z,14.73
2023-02-11T10:43:43.524Z,13.93
2023-02-11T10:46:17.198Z,14.83
2023-02-11T10:48:52.697Z,14.60
2023-02-11T10:51:25.438Z,14.97
2023-02-11T10:54:04.161Z,15.70
2023-02-11T10:56:34.389Z,15.60
2023-02-11T10:59:05.163Z,15.10
2023-02-11T11:01:48.580Z,15.67
2023-02-11T11:04:30.446Z,16.23
2023-02-11T11:07:09.574Z,16.43
2023-02-11T11:09:59.636Z,16.93
2023-02-11T11:12:47.308Z,17.73
2023-02-11T11:15:32.974Z,16.67
2023-02-11T11:18:21.349Z,16.63
2023-02-11T11:21:01.323Z,15.47
2023-02-11T11:23:30.330Z,15.70
2023-02-11T11:26:05.124Z,16.10
2023-02-11T11:28:55.919Z,16.10
2023-02-11T11:31:30.462Z,14.47
2023-02-11T11:33:59.605Z,16.37
2023-02-11T11:36:36.044Z,16.77
2023-02-11T11:39:17.773Z,17.23
2023-02-11T11:41:57.833Z,18.73
2023-02-11T11:44:26.135Z,16.70
2023-02-11T11:47:11.049Z,15.13
2023-02-11T11:49:41.858Z,14.90
2023-02-11T11:52:48.921Z,15.40
2023-02-11T11:55:26.888Z,15.47
2023-02-11T11:57:53.740Z,15.13
2023-02-11T12:01:00.124Z,13.97
2023-02-11T12:03:42.062Z,15.07
2023-02-11T12:06:39.578Z,14.90
2023-02-11T12:09:16.082Z,14.90
2023-02-11T12:12:04.567Z,15.88
2023-02-11T12:14:39.351Z,15.95
2023-02-11T12:17:17.642Z,16.58
2023-02-11T12:19:56.326Z,16.15
2023-02-11T12:22:31.723Z,15.98
2023-02-11T12:25:09.938Z,15.98
2023-02-11T12:27:52.713Z,17.55
2023-02-11T12:30:28.716Z,17.55
2023-02-11T12:33:23.350Z,17.02
2023-02-11T12:35:55.813Z,17.90
2023-02-11T12:38:48.878Z,18.27
2023-02-11T12:42:03.682Z,16.90
2023-02-11T12:44:36.494Z,19.80
2023-02-11T12:47:13.027Z,20.43
2023-02-11T12:50:13.036Z,21.23
2023-02-11T12:52:57.809Z,21.07
2023-02-11T12:55:28.203Z,19.97
2023-02-11T12:57:59.359Z,19.70
2023-02-11T13:00:37.218Z,19.43
2023-02-11T13:03:09.827Z,17.83
2023-02-11T13:06:01.842Z,16.87
2023-02-11T13:08:34.738Z,17.30
2023-02-11T13:11:07.984Z,15.20
2023-02-11T13:13:46.216Z,16.37
2023-02-11T13:16:24.036Z,16.17
2023-02-11T13:18:55.770Z,16.87
2023-02-11T13:21:32.079Z,16.57
2023-02-11T13:24:13.450Z,17.37
2023-02-11T13:26:43.252Z,16.30
2023-02-11T13:29:30.073Z,16.53
2023-02-11T13:32:10.073Z,15.13
2023-02-11T13:34:43.008Z,15.23
2023-02-11T13:37:21.684Z,14.10
2023-02-11T13:40:04.870Z,13.03
2023-02-11T13:42:34.311Z,12.90
2023-02-11T13:45:01.499Z,11.03
2023-02-11T13:47:37.407Z,9.97
2023-02-11T13:50:07.310Z,11.00
2023-02-11T13:52:37.960Z,11.50
2023-02-11T13:55:21.574Z,10.73
2023-02-11T13:58:08.206Z,10.27
2023-02-11T14:00:34.855Z,10.20
2023-02-11T14:03:29.381Z,10.10
2023-02-11T14:06:27.116Z,10.27
2023-02-11T14:09:09.203Z,10.70
2023-02-11T14:11:56.187Z,9.87
2023-02-11T14:14:31.661Z,9.47
2023-02-11T14:17:01.550Z,9.37
2023-02-11T14:19:37.436Z,9.13
2023-02-11T14:22:05.028Z,9.80
2023-02-11T14:24:37.578Z,8.33
2023-02-11T14:27:21.345Z,8.00
2023-02-11T14:30:08.331Z,8.13
2023-02-11T14:33:00.633Z,7.83
2023-02-11T14:35:41.816Z,9.60
2023-02-11T14:38:59.427Z,9.27
2023-02-11T14:41:47.095Z,9.07
2023-02-11T14:44:25.183Z,9.20
2023-02-11T14:46:53.981Z,10.73
2023-02-11T14:49:33.613Z,9.03
2023-02-11T14:52:20.106Z,9.47
2023-02-11T14:54:50.995Z,9.30
2023-02-11T14:57:20.178Z,8.53
2023-02-11T15:00:21.076Z,7.30
2023-02-11T15:02:48.243Z,7.37
2023-02-11T15:05:29.011Z,8.67
2023-02-11T15:08:02.076Z,8.70
2023-02-11T15:10:49.274Z,7.73
2023-02-11T15:13:21.576Z,7.97
2023-02-11T15:15:52.314Z,7.93
2023-02-11T15:18:25.731Z,7.43
2023-02-11T15:20:53.141Z,8.00
2023-02-11T15:23:24.918Z,6.83
2023-02-11T15:25:55.818Z,7.53
2023-02-11T15:28:31.737Z,8.17
2023-02-11T15:31:04.557Z,8.07
2023-02-11T15:33:32.659Z,8.13
2023-02-11T15:36:01.782Z,7.50
2023-02-11T15:38:31.786Z,7.30
2023-02-11T15:41:02.022Z,7.60
2023-02-11T15:43:46.961Z,7.53
2023-02-11T15:46:18.716Z,7.17
2023-02-11T15:48:49.173Z,7.20
2023-02-11T15:51:37.922Z,7.23
2023-02-11T15:54:22.778Z,8.67
2023-02-11T15:56:52.456Z,7.90
2023-02-11T15:59:22.464Z,7.70
2023-02-11T16:01:49.834Z,7.60
2023-02-11T16:04:19.693Z,8.17
2023-02-11T16:06:50.549Z,7.43
2023-02-11T16:09:17.388Z,7.90
2023-02-11T16:11:47.264Z,8.40
2023-02-11T16:14:21.869Z,9.27
2023-02-11T16:16:51.814Z,8.50
2023-02-11T16:19:23.589Z,7.40
2023-02-11T16:21:53.553Z,7.33
2023-02-11T16:24:33.948Z,7.50
2023-02-11T16:27:03.690Z,7.50
2023-02-11T16:29:33.521Z,8.37
2023-02-11T16:32:09.097Z,25.77
2023-02-11T16:34:37.091Z,12.40
2023-02-11T16:37:05.579Z,9.03
2023-02-11T16:39:33.351Z,11.77
2023-02-11T16:42:01.310Z,8.10
2023-02-11T16:44:28.938Z,8.20
2023-02-11T16:46:59.181Z,8.97
2023-02-11T16:49:42.203Z,8.20
2023-02-11T16:52:14.329Z,8.83
2023-02-11T16:54:41.428Z,8.60
2023-02-11T16:57:20.797Z,9.23
2023-02-11T16:59:48.822Z,9.67
2023-02-11T17:02:16.976Z,10.37
2023-02-11T17:04:44.589Z,10.50
2023-02-11T17:07:11.944Z,9.97
2023-02-11T17:09:38.914Z,10.00
2023-02-11T17:12:06.154Z,13.80
2023-02-11T17:14:33.107Z,12.50
2023-02-11T17:17:00.121Z,10.83
2023-02-11T17:19:27.338Z,9.23
2023-02-11T17:21:54.196Z,10.10
2023-02-11T17:24:22.226Z,10.37
2023-02-11T17:26:49.603Z,9.30
2023-02-11T17:29:19.745Z,9.43
2023-02-11T17:31:46.830Z,10.27
2023-02-11T17:34:14.168Z,9.97
2023-02-11T17:36:43.880Z,10.47
2023-02-11T17:39:10.948Z,10.37
2023-02-11T17:41:38.853Z,10.43
2023-02-11T17:44:06.891Z,10.20
2023-02-11T17:46:36.815Z,9.83
2023-02-11T17:49:04.386Z,9.73
2023-02-11T17:51:34.016Z,9.93
2023-02-11T17:54:04.177Z,12.07
2023-02-11T17:56:36.316Z,12.80
2023-02-11T17:59:04.226Z,13.30
2023-02-11T18:01:32.815Z,18.17
2023-02-11T18:03:59.594Z,14.47
2023-02-11T18:06:26.893Z,14.03
2023-02-11T18:08:56.837Z,17.47
2023-02-11T18:11:25.863Z,21.10
2023-02-11T18:13:54.483Z,16.30
2023-02-11T18:16:22.208Z,13.23
2023-02-11T18:18:49.722Z,15.33
2023-02-11T18:21:19.633Z,14.33
2023-02-11T18:23:47.202Z,15.60
2023-02-11T18:26:15.529Z,20.13
2023-02-11T18:28:45.291Z,20.07
2023-02-11T18:31:12.550Z,20.67
2023-02-11T18:33:40.463Z,19.97
2023-02-11T18:36:10.853Z,19.17
2023-02-11T18:38:38.350Z,19.10
2023-02-11T18:41:05.386Z,18.27
2023-02-11T18:43:33.566Z,19.17
2023-02-11T18:46:01.901Z,19.53
2023-02-11T18:48:28.884Z,19.27
2023-02-11T18:50:55.738Z,19.43
2023-02-11T18:53:24.707Z,18.40
2023-02-11T18:55:52.622Z,17.90
2023-02-11T18:58:21.143Z,19.73
2023-02-11T19:00:49.206Z,22.23
2023-02-11T19:03:16.348Z,20.47
2023-02-11T19:05:45.797Z,20.97
2023-02-11T19:08:13.438Z,20.53
2023-02-11T19:10:45.213Z,20.27
2023-02-11T19:13:12.087Z,20.73
2023-02-11T19:15:43.047Z,20.93
2023-02-11T19:18:10.752Z,21.23
2023-02-11T19:20:42.331Z,20.07
2023-02-11T19:23:10.039Z,20.40
2023-02-11T19:25:37.314Z,20.70
2023-02-11T19:28:04.039Z,20.57
2023-02-11T19:30:30.854Z,20.43
2023-02-11T19:32:57.785Z,19.67
2023-02-11T19:35:25.732Z,20.53
2023-02-11T19:37:52.447Z,19.47
2023-02-11T19:40:21.150Z,20.67
2023-02-11T19:42:47.902Z,20.87
2023-02-11T19:45:14.689Z,21.30
2023-02-11T19:47:41.368Z,20.33
2023-02-11T19:50:08.850Z,20.77
2023-02-11T19:52:38.254Z,22.77
2023-02-11T19:55:05.281Z,21.27
2023-02-11T19:57:31.974Z,21.40
2023-02-11T19:59:58.787Z,20.90
2023-02-11T20:02:25.527Z,20.87
2023-02-11T20:04:52.258Z,21.83
2023-02-11T20:07:18.913Z,21.67
2023-02-11T20:09:45.555Z,20.87
2023-02-11T20:12:12.331Z,20.93
2023-02-11T20:14:39.005Z,20.67
2023-02-11T20:17:05.604Z,21.13
2023-02-11T20:19:32.322Z,21.07
2023-02-11T20:21:59.056Z,21.13
2023-02-11T20:24:26.035Z,20.70
2023-02-11T20:26:55.743Z,20.70
2023-02-11T20:29:23.648Z,20.47
2023-02-11T20:31:50.889Z,22.27
2023-02-11T20:34:18.171Z,21.53
2023-02-11T20:36:51.635Z,22.43
2023-02-11T20:39:19.224Z,21.63
2023-02-11T20:41:46.338Z,21.83
2023-02-11T20:44:13.505Z,22.67
2023-02-11T20:46:42.934Z,22.37
2023-02-11T20:49:21.405Z,21.70
2023-02-11T20:51:49.200Z,21.93
2023-02-11T20:54:18.386Z,22.30
2023-02-11T20:56:48.084Z,22.13
2023-02-11T20:59:16.587Z,21.97
2023-02-11T21:01:46.992Z,23.17
2023-02-11T21:04:20.989Z,21.77
2023-02-11T21:06:52.020Z,20.77
2023-02-11T21:09:21.461Z,22.03
2023-02-11T21:11:51.516Z,22.33
2023-02-11T21:14:19.392Z,22.17
2023-02-11T21:16:47.184Z,21.67
2023-02-11T21:19:14.622Z,22.27
2023-02-11T21:21:41.740Z,20.77
2023-02-11T21:24:09.653Z,22.73
2023-02-11T21:26:37.307Z,20.90
2023-02-11T21:29:05.719Z,21.20
2023-02-11T21:31:34.715Z,21.30
2023-02-11T21:34:01.521Z,21.73
2023-02-11T21:36:29.630Z,22.10
2023-02-11T21:38:56.823Z,21.47
2023-02-11T21:41:24.721Z,22.17
2023-02-11T21:43:52.251Z,22.43
2023-02-11T21:46:20.604Z,20.57
2023-02-11T21:48:48.059Z,23.13
2023-02-11T21:51:18.587Z,23.20
2023-02-11T21:53:45.879Z,22.17
2023-02-11T21:56:15.610Z,23.00
2023-02-11T21:58:43.048Z,23.43
2023-02-11T22:01:18.758Z,22.93
2023-02-11T22:03:46.408Z,23.13
2023-02-11T22:06:16.493Z,22.97
2023-02-11T22:08:43.376Z,22.83
2023-02-11T22:11:12.321Z,23.07
2023-02-11T22:13:40.364Z,23.07
2023-02-11T22:16:10.722Z,23.47
2023-02-11T22:18:38.439Z,23.80
2023-02-11T22:21:10.991Z,23.20
2023-02-11T22:23:39.058Z,23.40
2023-02-11T22:26:08.336Z,22.30
2023-02-11T22:28:36.996Z,23.43
2023-02-11T22:31:04.000Z,24.60
2023-02-11T22:33:31.060Z,23.43
2023-02-11T22:36:02.596Z,25.13
2023-02-11T22:38:31.125Z,24.00
2023-02-11T22:41:00.396Z,23.57
2023-02-11T22:43:28.090Z,23.57
2023-02-11T22:45:56.437Z,23.60
2023-02-11T22:48:23.366Z,23.57
2023-02-11T22:50:50.080Z,24.13
2023-02-11T22:53:16.807Z,23.47
2023-02-11T22:55:43.420Z,23.17
2023-02-11T22:58:10.073Z,23.43
2023-02-11T23:00:39.378Z,23.53
2023-02-11T23:03:07.814Z,21.83
2023-02-11T23:05:39.562Z,23.20
2023-02-11T23:08:08.673Z,23.00
2023-02-11T23:10:37.004Z,23.37
2023-02-11T23:13:04.645Z,22.70
2023-02-11T23:15:31.573Z,23.30
2023-02-11T23:17:59.070Z,23.67
2023-02-11T23:20:26.044Z,23.50
2023-02-11T23:22:52.746Z,23.63
2023-02-11T23:25:19.450Z,23.53
2023-02-11T23:27:46.143Z,23.53
2023-02-11T23:30:13.598Z,23.67
2023-02-11T23:32:40.802Z,24.10
2023-02-11T23:35:07.715Z,24.33
2023-02-11T23:37:34.452Z,23.63
2023-02-11T23:40:01.113Z,24.13
2023-02-11T23:42:29.064Z,23.40
2023-02-11T23:44:55.720Z,23.10
2023-02-11T23:47:22.320Z,22.60
2023-02-11T23:49:49.025Z,23.53
2023-02-11T23:52:15.718Z,24.50
2023-02-11T23:54:43.337Z,24.00
2023-02-11T23:57:10.083Z,24.37
2023-02-11T23:59:36.759Z,24.10
